createdAt,value
2022-09-28T00:02:26.571Z,8.54
2022-09-28T00:04:55.364Z,8.46
2022-09-28T00:07:26.418Z,8.50
2022-09-28T00:09:55.112Z,8.69
2022-09-28T00:12:25.926Z,8.50
2022-09-28T00:14:54.758Z,8.69
2022-09-28T00:17:26.184Z,8.65
2022-09-28T00:19:58.003Z,8.48
2022-09-28T00:22:26.786Z,8.81
2022-09-28T00:24:55.467Z,8.65
2022-09-28T00:27:25.520Z,8.44
2022-09-28T00:29:54.509Z,8.50
2022-09-28T00:32:25.074Z,8.39
2022-09-28T00:34:55.114Z,8.54
2022-09-28T00:37:27.907Z,8.59
2022-09-28T00:39:56.989Z,8.61
2022-09-28T00:42:28.440Z,8.35
2022-09-28T00:44:57.561Z,8.34
2022-09-28T00:47:49.854Z,8.39
2022-09-28T00:50:24.696Z,8.47
2022-09-28T00:52:56.960Z,8.30
2022-09-28T00:55:32.069Z,8.22
2022-09-28T00:58:06.667Z,8.11
2022-09-28T01:00:35.601Z,8.08
2022-09-28T01:03:05.181Z,8.11
2022-09-28T01:05:35.169Z,7.97
2022-09-28T01:08:05.576Z,8.16
2022-09-28T01:10:34.805Z,8.40
2022-09-28T01:13:04.970Z,8.34
2022-09-28T01:15:41.885Z,8.30
2022-09-28T01:18:19.031Z,8.38
2022-09-28T01:20:56.267Z,7.61
2022-09-28T01:23:51.560Z,8.28
2022-09-28T01:26:38.869Z,8.26
2022-09-28T01:29:17.631Z,8.50
2022-09-28T01:31:53.897Z,8.68
2022-09-28T01:34:29.959Z,8.56
2022-09-28T01:37:02.729Z,7.18
2022-09-28T01:39:37.262Z,8.39
2022-09-28T01:42:12.777Z,8.38
2022-09-28T01:44:45.732Z,8.33
2022-09-28T01:47:22.679Z,8.19
2022-09-28T01:49:56.302Z,8.20
2022-09-28T01:52:31.221Z,8.32
2022-09-28T01:55:07.341Z,8.37
2022-09-28T01:57:47.755Z,8.39
2022-09-28T02:00:20.746Z,8.38
2022-09-28T02:02:56.643Z,8.40
2022-09-28T02:05:38.223Z,8.41
2022-09-28T02:08:10.846Z,8.42
2022-09-28T02:10:43.073Z,8.36
2022-09-28T02:13:18.211Z,8.24
2022-09-28T02:15:55.019Z,8.46
2022-09-28T02:18:23.866Z,8.49
2022-09-28T02:21:02.342Z,8.27
2022-09-28T02:23:36.306Z,8.33
2022-09-28T02:26:10.093Z,8.44
2022-09-28T02:28:40.334Z,8.46
2022-09-28T02:31:11.717Z,8.20
2022-09-28T02:33:44.613Z,8.22
2022-09-28T02:36:14.788Z,8.20
2022-09-28T02:38:45.812Z,8.03
2022-09-28T02:41:27.800Z,7.47
2022-09-28T02:44:09.181Z,8.43
2022-09-28T02:46:50.699Z,8.27
2022-09-28T02:49:31.341Z,8.41
2022-09-28T02:52:16.413Z,8.28
2022-09-28T02:55:19.292Z,8.48
2022-09-28T02:58:05.140Z,8.50
2022-09-28T03:00:43.808Z,8.35
2022-09-28T03:03:19.506Z,8.46
2022-09-28T03:05:58.718Z,8.62
2022-09-28T03:08:33.709Z,7.99
2022-09-28T03:11:06.879Z,8.56
2022-09-28T03:13:36.865Z,8.65
2022-09-28T03:16:16.162Z,8.66
2022-09-28T03:18:51.263Z,8.41
2022-09-28T03:21:26.997Z,8.36
2022-09-28T03:23:56.633Z,8.23
2022-09-28T03:26:26.180Z,8.31
2022-09-28T03:28:55.596Z,8.13
2022-09-28T03:31:30.472Z,8.03
2022-09-28T03:34:00.480Z,7.97
2022-09-28T03:36:29.627Z,7.94
2022-09-28T03:38:59.695Z,8.01
2022-09-28T03:41:29.103Z,8.00
2022-09-28T03:43:58.514Z,8.12
2022-09-28T03:46:31.252Z,8.30
2022-09-28T03:49:06.733Z,8.28
2022-09-28T03:51:35.965Z,8.32
2022-09-28T03:54:06.410Z,8.12
2022-09-28T03:56:35.929Z,8.36
2022-09-28T03:59:06.452Z,8.20
2022-09-28T04:01:38.760Z,8.19
2022-09-28T04:04:08.160Z,8.14
2022-09-28T04:06:39.292Z,8.08
2022-09-28T04:09:11.085Z,8.17
2022-09-28T04:11:59.808Z,8.16
2022-09-28T04:14:28.748Z,8.47
2022-09-28T04:16:59.004Z,8.46
2022-09-28T04:19:29.828Z,8.36
2022-09-28T04:22:21.868Z,8.49
2022-09-28T04:24:50.771Z,8.26
2022-09-28T04:27:37.476Z,8.23
2022-09-28T04:30:07.484Z,8.27
2022-09-28T04:32:38.811Z,8.40
2022-09-28T04:35:08.715Z,8.34
2022-09-28T04:37:40.190Z,8.25
2022-09-28T04:40:10.003Z,8.18
2022-09-28T04:42:39.626Z,8.00
2022-09-28T04:45:09.954Z,7.91
2022-09-28T04:47:43.542Z,7.99
2022-09-28T04:50:31.277Z,8.11
2022-09-28T04:53:17.050Z,8.16
2022-09-28T04:55:45.903Z,8.11
2022-09-28T04:58:14.748Z,7.90
2022-09-28T05:00:44.196Z,8.09
2022-09-28T05:03:50.144Z,8.02
2022-09-28T05:06:30.805Z,6.63
2022-09-28T05:09:07.526Z,8.22
2022-09-28T05:11:36.652Z,8.30
2022-09-28T05:14:09.272Z,8.27
2022-09-28T05:16:38.481Z,8.41
2022-09-28T05:19:30.294Z,8.44
2022-09-28T05:22:04.970Z,8.28
2022-09-28T05:24:43.664Z,8.21
2022-09-28T05:27:15.546Z,8.37
2022-09-28T05:29:49.685Z,8.44
2022-09-28T05:32:41.593Z,8.36
2022-09-28T05:35:24.637Z,8.23
2022-09-28T05:37:54.271Z,8.23
2022-09-28T05:40:24.147Z,8.13
2022-09-28T05:42:52.821Z,8.31
2022-09-28T05:45:21.451Z,8.23
2022-09-28T05:47:51.824Z,7.78
2022-09-28T05:50:24.853Z,8.29
2022-09-28T05:53:01.072Z,8.54
2022-09-28T05:55:30.015Z,8.50
2022-09-28T05:58:00.921Z,8.23
2022-09-28T06:00:32.523Z,8.30
2022-09-28T06:03:08.721Z,8.29
2022-09-28T06:05:41.954Z,8.24
2022-09-28T06:08:12.571Z,8.12
2022-09-28T06:10:47.443Z,8.25
2022-09-28T06:13:16.899Z,8.38
2022-09-28T06:15:47.530Z,8.43
2022-09-28T06:18:17.053Z,8.31
2022-09-28T06:21:08.365Z,8.42
2022-09-28T06:23:48.222Z,7.72
2022-09-28T06:26:21.338Z,8.48
2022-09-28T06:28:51.367Z,8.25
2022-09-28T06:31:23.891Z,8.38
2022-09-28T06:33:57.049Z,8.51
2022-09-28T06:36:31.402Z,8.56
2022-09-28T06:39:01.367Z,8.45
2022-09-28T06:41:30.822Z,8.44
2022-09-28T06:44:03.760Z,8.48
2022-09-28T06:46:51.654Z,8.94
2022-09-28T06:49:56.379Z,8.82
2022-09-28T06:52:45.013Z,8.92
2022-09-28T06:55:34.984Z,8.83
2022-09-28T06:58:07.914Z,8.81
2022-09-28T07:00:38.702Z,8.70
2022-09-28T07:03:15.009Z,8.83
2022-09-28T07:06:13.618Z,8.94
2022-09-28T07:09:26.610Z,8.73
2022-09-28T07:12:26.193Z,8.84
2022-09-28T07:14:58.309Z,8.99
2022-09-28T07:17:29.828Z,8.90
2022-09-28T07:20:16.042Z,8.99
2022-09-28T07:22:47.991Z,8.86
2022-09-28T07:25:22.951Z,9.09
2022-09-28T07:28:24.797Z,9.06
2022-09-28T07:31:12.245Z,9.28
2022-09-28T07:34:07.264Z,9.42
2022-09-28T07:36:57.525Z,9.38
2022-09-28T07:39:26.336Z,9.43
2022-09-28T07:42:02.484Z,9.54
2022-09-28T07:44:33.813Z,9.64
2022-09-28T07:47:05.208Z,9.99
2022-09-28T07:49:55.023Z,10.13
2022-09-28T07:52:44.377Z,10.43
2022-09-28T07:55:29.596Z,10.63
2022-09-28T07:58:16.353Z,10.22
2022-09-28T08:00:55.506Z,10.72
2022-09-28T08:03:24.386Z,10.95
2022-09-28T08:05:59.301Z,11.09
2022-09-28T08:08:30.123Z,11.21
2022-09-28T08:11:00.222Z,11.45
2022-09-28T08:13:47.687Z,11.48
2022-09-28T08:16:35.098Z,11.56
2022-09-28T08:19:27.129Z,11.84
2022-09-28T08:21:57.072Z,11.89
2022-09-28T08:24:25.837Z,12.25
2022-09-28T08:26:55.702Z,12.33
2022-09-28T08:29:28.467Z,12.50
2022-09-28T08:32:09.233Z,12.68
2022-09-28T08:35:13.281Z,13.00
2022-09-28T08:38:14.677Z,13.19
2022-09-28T08:41:18.615Z,13.17
2022-09-28T08:44:11.845Z,13.16
2022-09-28T08:47:29.185Z,13.47
2022-09-28T08:50:25.396Z,13.85
2022-09-28T08:53:20.862Z,13.91
2022-09-28T08:56:05.310Z,13.85
2022-09-28T08:58:39.410Z,14.05
2022-09-28T09:01:14.225Z,14.17
2022-09-28T09:03:45.866Z,14.36
2022-09-28T09:07:03.777Z,14.62
2022-09-28T09:09:53.768Z,14.76
2022-09-28T09:12:33.610Z,15.03
2022-09-28T09:15:34.921Z,15.09
2022-09-28T09:18:23.050Z,15.45
2022-09-28T09:21:41.008Z,15.40
2022-09-28T09:24:43.272Z,15.28
2022-09-28T09:27:20.154Z,15.57
2022-09-28T09:30:04.157Z,15.27
2022-09-28T09:33:07.725Z,15.11
2022-09-28T09:36:12.386Z,15.23
2022-09-28T09:39:36.183Z,14.67
2022-09-28T09:42:38.830Z,15.52
2022-09-28T09:45:39.738Z,15.63
2022-09-28T09:48:25.553Z,15.52
2022-09-28T09:51:01.166Z,15.75
2022-09-28T09:53:38.475Z,15.97
2022-09-28T09:56:19.197Z,16.04
2022-09-28T09:59:26.095Z,16.13
2022-09-28T10:02:25.642Z,16.35
2022-09-28T10:05:16.077Z,16.15
2022-09-28T10:07:55.054Z,15.65
2022-09-28T10:10:30.259Z,15.72
2022-09-28T10:13:11.478Z,16.26
2022-09-28T10:15:42.630Z,16.24
2022-09-28T10:18:32.369Z,16.32
2022-09-28T10:21:37.696Z,16.22
2022-09-28T10:24:31.329Z,16.20
2022-09-28T10:27:06.903Z,16.44
2022-09-28T10:29:49.731Z,16.83
2022-09-28T10:32:21.536Z,17.05
2022-09-28T10:34:52.589Z,17.13
2022-09-28T10:37:25.669Z,16.82
2022-09-28T10:40:38.836Z,17.16
2022-09-28T10:43:21.789Z,17.13
2022-09-28T10:46:08.244Z,17.06
2022-09-28T10:48:50.692Z,17.27
2022-09-28T10:51:21.060Z,17.64
2022-09-28T10:54:01.647Z,17.60
2022-09-28T10:56:47.647Z,17.54
2022-09-28T10:59:39.797Z,17.51
2022-09-28T11:02:33.520Z,17.16
2022-09-28T11:05:21.877Z,16.92
2022-09-28T11:07:55.540Z,16.89
2022-09-28T11:10:33.711Z,17.06
2022-09-28T11:13:13.887Z,16.82
2022-09-28T11:15:47.646Z,15.86
2022-09-28T11:18:32.591Z,15.49
2022-09-28T11:21:15.692Z,15.11
2022-09-28T11:24:01.395Z,14.81
2022-09-28T11:26:38.901Z,14.68
2022-09-28T11:29:20.932Z,14.69
2022-09-28T11:32:03.431Z,14.55
2022-09-28T11:34:58.736Z,14.36
2022-09-28T11:37:49.640Z,14.54
2022-09-28T11:40:36.413Z,14.31
2022-09-28T11:43:18.145Z,14.30
2022-09-28T11:45:55.587Z,14.28
2022-09-28T11:48:28.828Z,14.46
2022-09-28T11:51:03.092Z,14.30
2022-09-28T11:53:39.463Z,14.55
2022-09-28T11:56:20.271Z,14.52
2022-09-28T11:58:53.373Z,15.52
2022-09-28T12:01:35.614Z,15.80
2022-09-28T12:04:22.658Z,15.83
2022-09-28T12:06:58.334Z,16.22
2022-09-28T12:09:37.466Z,16.58
2022-09-28T12:12:36.485Z,16.40
2022-09-28T12:15:17.962Z,16.58
2022-09-28T12:17:54.070Z,15.75
2022-09-28T12:20:27.387Z,16.49
2022-09-28T12:23:08.966Z,16.58
2022-09-28T12:25:46.267Z,15.96
2022-09-28T12:28:24.213Z,17.02
2022-09-28T12:30:55.738Z,16.90
2022-09-28T12:33:24.602Z,16.75
2022-09-28T12:36:07.420Z,16.64
2022-09-28T12:39:02.917Z,17.12
2022-09-28T12:41:50.176Z,16.76
2022-09-28T12:44:41.747Z,16.62
2022-09-28T12:47:33.458Z,16.63
2022-09-28T12:53:21.764Z,16.84
2022-09-28T12:56:03.180Z,16.71
2022-09-28T12:58:59.897Z,16.77
2022-09-28T13:01:50.461Z,16.77
2022-09-28T13:04:45.929Z,16.26
2022-09-28T13:07:22.298Z,15.81
2022-09-28T13:10:03.714Z,15.70
2022-09-28T13:12:45.941Z,15.67
2022-09-28T13:15:42.043Z,15.45
2022-09-28T13:18:20.699Z,15.31
2022-09-28T13:21:02.174Z,14.88
2022-09-28T13:23:36.748Z,14.50
2022-09-28T13:26:15.755Z,14.61
2022-09-28T13:28:48.026Z,14.56
2022-09-28T13:31:22.105Z,14.62
2022-09-28T13:33:52.373Z,14.75
2022-09-28T13:36:47.208Z,14.77
2022-09-28T13:39:38.914Z,14.76
2022-09-28T13:42:10.503Z,14.63
2022-09-28T13:44:55.332Z,14.64
2022-09-28T13:47:56.338Z,14.39
2022-09-28T13:50:44.785Z,14.38
2022-09-28T13:53:24.449Z,14.50
2022-09-28T13:56:03.000Z,14.08
2022-09-28T13:58:38.056Z,14.23
2022-09-28T14:01:12.806Z,14.32
2022-09-28T14:03:55.392Z,13.99
2022-09-28T14:06:27.663Z,14.01
2022-09-28T14:09:27.969Z,13.94
2022-09-28T14:11:59.739Z,13.99
2022-09-28T14:14:33.485Z,13.76
2022-09-28T14:17:50.567Z,13.70
2022-09-28T14:20:25.079Z,13.64
2022-09-28T14:23:42.070Z,13.48
2022-09-28T14:26:43.267Z,13.69
2022-09-28T14:29:27.893Z,13.45
2022-09-28T14:31:59.432Z,13.71
2022-09-28T14:34:38.369Z,13.55
2022-09-28T14:37:39.724Z,13.47
2022-09-28T14:40:36.962Z,13.52
2022-09-28T14:43:29.808Z,13.64
2022-09-28T14:46:31.372Z,13.72
2022-09-28T14:49:03.717Z,13.62
2022-09-28T14:52:06.571Z,13.50
2022-09-28T14:54:52.575Z,13.74
2022-09-28T14:57:25.441Z,13.84
2022-09-28T14:59:56.876Z,13.82
2022-09-28T15:02:33.454Z,13.60
2022-09-28T15:05:14.365Z,13.80
2022-09-28T15:07:49.613Z,13.64
2022-09-28T15:10:28.290Z,13.48
2022-09-28T15:12:58.269Z,13.82
2022-09-28T15:15:33.003Z,13.79
2022-09-28T15:18:18.166Z,13.68
2022-09-28T15:20:49.468Z,13.98
2022-09-28T15:23:34.174Z,13.97
2022-09-28T15:26:09.775Z,13.98
2022-09-28T15:28:45.959Z,14.18
2022-09-28T15:31:20.117Z,14.11
2022-09-28T15:34:07.293Z,14.14
2022-09-28T15:36:39.883Z,14.18
2022-09-28T15:39:16.048Z,14.30
2022-09-28T15:41:51.700Z,14.14
2022-09-28T15:44:32.907Z,14.15
2022-09-28T15:47:15.257Z,13.88
2022-09-28T15:49:57.303Z,13.95
2022-09-28T15:52:34.025Z,13.76
2022-09-28T15:55:19.856Z,13.89
2022-09-28T15:58:06.431Z,13.87
2022-09-28T16:00:36.825Z,13.80
2022-09-28T16:03:24.412Z,13.82
2022-09-28T16:06:08.539Z,13.75
2022-09-28T16:08:42.264Z,13.78
2022-09-28T16:11:17.753Z,13.73
2022-09-28T16:13:57.464Z,13.87
2022-09-28T16:16:30.422Z,13.92
2022-09-28T16:19:01.790Z,13.87
2022-09-28T16:21:46.819Z,13.83
2022-09-28T16:24:22.815Z,13.85
2022-09-28T16:26:58.283Z,13.19
2022-09-28T16:29:39.871Z,13.70
2022-09-28T16:32:37.731Z,13.63
2022-09-28T16:35:22.960Z,13.47
2022-09-28T16:37:59.257Z,13.66
2022-09-28T16:40:29.046Z,13.24
2022-09-28T16:43:01.338Z,13.18
2022-09-28T16:45:36.031Z,13.12
2022-09-28T16:48:05.932Z,13.06
2022-09-28T16:50:37.040Z,12.86
2022-09-28T16:53:31.702Z,12.82
2022-09-28T16:56:01.606Z,12.77
2022-09-28T16:58:31.993Z,12.65
2022-09-28T17:01:02.478Z,12.30
2022-09-28T17:03:31.440Z,12.52
2022-09-28T17:06:00.759Z,12.48
2022-09-28T17:08:33.748Z,12.45
2022-09-28T17:11:14.967Z,12.39
2022-09-28T17:13:47.929Z,12.36
2022-09-28T17:16:28.216Z,12.35
2022-09-28T17:19:19.207Z,12.27
2022-09-28T17:21:48.969Z,11.48
2022-09-28T17:24:20.691Z,12.26
2022-09-28T17:26:52.166Z,12.29
2022-09-28T17:29:21.799Z,12.22
2022-09-28T17:31:52.184Z,12.20
2022-09-28T17:34:21.714Z,12.24
2022-09-28T17:36:50.537Z,12.21
2022-09-28T17:39:20.569Z,12.07
2022-09-28T17:41:51.832Z,12.06
2022-09-28T17:44:20.595Z,12.01
2022-09-28T17:46:51.121Z,12.04
2022-09-28T17:49:21.163Z,12.02
2022-09-28T17:51:53.010Z,12.06
2022-09-28T17:54:22.632Z,12.00
2022-09-28T17:56:51.739Z,11.98
2022-09-28T17:59:20.767Z,11.79
2022-09-28T18:01:49.959Z,11.66
2022-09-28T18:04:39.656Z,11.57
2022-09-28T18:07:10.235Z,11.50
2022-09-28T18:09:39.298Z,11.45
2022-09-28T18:12:11.570Z,11.40
2022-09-28T18:14:41.913Z,11.35
2022-09-28T18:17:11.411Z,11.19
2022-09-28T18:19:42.635Z,11.26
2022-09-28T18:22:13.632Z,11.23
2022-09-28T18:24:43.036Z,11.23
2022-09-28T18:27:12.646Z,10.88
2022-09-28T18:29:41.953Z,11.18
2022-09-28T18:32:11.644Z,11.15
2022-09-28T18:34:40.816Z,11.21
2022-09-28T18:37:12.177Z,11.17
2022-09-28T18:39:41.261Z,11.17
2022-09-28T18:42:10.593Z,11.12
2022-09-28T18:44:39.842Z,11.08
2022-09-28T18:47:08.770Z,11.07
2022-09-28T18:49:37.512Z,11.01
2022-09-28T18:52:06.488Z,11.09
2022-09-28T18:54:37.267Z,11.09
2022-09-28T18:57:08.812Z,11.04
2022-09-28T18:59:40.212Z,11.08
2022-09-28T19:02:11.909Z,11.10
2022-09-28T19:04:41.498Z,11.04
2022-09-28T19:07:10.654Z,11.10
2022-09-28T19:09:44.083Z,11.05
2022-09-28T19:12:14.955Z,11.05
2022-09-28T19:14:45.364Z,11.15
2022-09-28T19:17:15.727Z,11.13
2022-09-28T19:19:46.150Z,11.00
2022-09-28T19:22:15.429Z,10.95
2022-09-28T19:24:46.180Z,10.95
2022-09-28T19:27:15.422Z,10.92
2022-09-28T19:29:44.844Z,10.96
2022-09-28T19:32:13.999Z,10.97
2022-09-28T19:34:44.047Z,10.91
2022-09-28T19:37:13.708Z,10.89
2022-09-28T19:39:43.151Z,11.00
2022-09-28T19:42:13.919Z,10.92
2022-09-28T19:44:43.992Z,10.90
2022-09-28T19:47:13.188Z,10.94
2022-09-28T19:49:42.810Z,10.93
2022-09-28T19:52:17.400Z,11.05
2022-09-28T19:54:58.065Z,10.91
2022-09-28T19:57:31.342Z,10.86
2022-09-28T20:00:03.903Z,10.76
2022-09-28T20:02:37.014Z,10.55
2022-09-28T20:05:07.164Z,10.71
2022-09-28T20:07:36.847Z,10.74
2022-09-28T20:10:06.911Z,10.84
2022-09-28T20:12:37.804Z,10.82
2022-09-28T20:15:10.673Z,10.90
2022-09-28T20:17:40.354Z,10.97
2022-09-28T20:20:10.049Z,10.84
2022-09-28T20:22:40.333Z,10.81
2022-09-28T20:25:10.111Z,10.79
2022-09-28T20:27:40.773Z,10.78
2022-09-28T20:30:11.233Z,10.49
2022-09-28T20:32:40.618Z,10.58
2022-09-28T20:35:10.734Z,10.72
2022-09-28T20:37:39.411Z,10.59
2022-09-28T20:40:11.338Z,10.57
2022-09-28T20:42:45.925Z,10.63
2022-09-28T20:45:15.824Z,10.66
2022-09-28T20:47:45.518Z,10.51
2022-09-28T20:50:15.587Z,10.33
2022-09-28T20:52:46.079Z,10.74
2022-09-28T20:55:16.248Z,10.64
2022-09-28T20:57:47.528Z,10.43
2022-09-28T21:00:17.328Z,10.50
2022-09-28T21:02:48.205Z,10.45
2022-09-28T21:05:18.024Z,10.42
2022-09-28T21:07:47.996Z,10.39
2022-09-28T21:10:18.031Z,10.23
2022-09-28T21:12:53.459Z,10.41
2022-09-28T21:15:22.984Z,10.27
2022-09-28T21:17:52.802Z,10.31
2022-09-28T21:20:22.802Z,10.26
2022-09-28T21:22:52.239Z,10.19
2022-09-28T21:25:23.080Z,10.15
2022-09-28T21:27:55.944Z,10.24
2022-09-28T21:30:26.966Z,10.14
2022-09-28T21:32:56.791Z,10.14
2022-09-28T21:35:27.405Z,10.15
2022-09-28T21:37:59.227Z,10.20
2022-09-28T21:40:28.814Z,9.43
2022-09-28T21:42:59.951Z,10.17
2022-09-28T21:45:29.328Z,10.41
2022-09-28T21:48:00.293Z,10.32
2022-09-28T21:50:29.454Z,10.54
2022-09-28T21:52:59.379Z,10.16
2022-09-28T21:55:29.314Z,10.24
2022-09-28T21:58:00.265Z,10.34
2022-09-28T22:00:30.005Z,10.18
2022-09-28T22:03:02.036Z,10.02
2022-09-28T22:05:31.967Z,9.94
2022-09-28T22:08:01.119Z,9.80
2022-09-28T22:10:30.110Z,9.79
2022-09-28T22:13:01.583Z,9.83
2022-09-28T22:15:31.992Z,9.69
2022-09-28T22:18:02.499Z,9.36
2022-09-28T22:20:32.459Z,9.81
2022-09-28T22:23:03.030Z,9.79
2022-09-28T22:25:32.905Z,9.56
2022-09-28T22:28:05.250Z,9.42
2022-09-28T22:30:36.841Z,9.52
2022-09-28T22:33:10.223Z,9.58
2022-09-28T22:35:40.910Z,9.55
2022-09-28T22:38:11.717Z,9.59
2022-09-28T22:40:43.938Z,9.20
2022-09-28T22:43:15.900Z,9.16
2022-09-28T22:45:47.530Z,9.42
2022-09-28T22:48:22.190Z,9.35
2022-09-28T22:50:54.029Z,9.19
2022-09-28T22:53:23.191Z,9.20
2022-09-28T22:55:52.407Z,9.32
2022-09-28T22:58:23.663Z,9.29
2022-09-28T23:00:52.635Z,9.24
2022-09-28T23:03:21.685Z,9.17
2022-09-28T23:05:54.523Z,9.02
2022-09-28T23:08:26.338Z,9.02
2022-09-28T23:10:57.639Z,8.94
2022-09-28T23:13:28.856Z,9.09
2022-09-28T23:15:59.063Z,8.97
2022-09-28T23:18:30.751Z,8.85
2022-09-28T23:21:02.110Z,8.83
2022-09-28T23:23:33.981Z,8.94
2022-09-28T23:26:12.404Z,8.95
2022-09-28T23:28:44.562Z,9.09
2022-09-28T23:31:17.412Z,9.03
2022-09-28T23:33:47.953Z,9.15
2022-09-28T23:36:18.558Z,9.12
2022-09-28T23:38:49.918Z,8.92
2022-09-28T23:41:21.225Z,8.90
2022-09-28T23:43:53.284Z,8.81
2022-09-28T23:46:23.324Z,8.87
2022-09-28T23:48:54.393Z,8.71
2022-09-28T23:51:24.853Z,8.63
2022-09-28T23:53:55.406Z,8.71
2022-09-28T23:56:26.307Z,8.87
2022-09-28T23:58:57.857Z,8.88
